createdAt,value
2019-04-23T00:00:19.819Z,7.80
2019-04-23T00:15:28.905Z,8.60
2019-04-23T00:45:55.035Z,8.80
2019-04-23T01:00:45.992Z,9.40
2019-04-23T01:15:53.983Z,9.30
2019-04-23T01:31:02.203Z,9.70
2019-04-23T01:46:07.926Z,10.00
2019-04-23T02:01:11.751Z,10.10
2019-04-23T02:16:19.174Z,10.00
2019-04-23T02:31:45.091Z,10.90
2019-04-23T02:46:24.517Z,10.50
2019-04-23T03:01:34.302Z,10.10
2019-04-23T03:16:58.401Z,10.90
2019-04-23T03:46:56.374Z,11.30
2019-04-23T04:02:20.576Z,10.50
2019-04-23T04:17:09.307Z,9.80
2019-04-23T04:32:24.653Z,10.30
2019-04-23T04:47:28.566Z,9.80
2019-04-23T05:02:32.735Z,9.00
2019-04-23T05:17:35.840Z,8.60
2019-04-23T05:32:26.511Z,9.00
2019-04-23T05:47:53.431Z,8.40
2019-04-23T06:02:46.102Z,8.30
2019-04-23T06:17:38.088Z,7.50
2019-04-23T06:32:42.952Z,6.90
2019-04-23T06:47:56.406Z,6.90
2019-04-23T07:03:00.884Z,7.00
2019-04-23T07:18:24.747Z,7.10
2019-04-23T07:33:29.790Z,6.90
2019-04-23T07:48:20.889Z,6.30
2019-04-23T08:03:40.324Z,6.00
2019-04-23T08:18:49.811Z,6.10
2019-04-23T08:33:58.848Z,5.30
2019-04-23T08:49:01.390Z,5.10
2019-04-23T09:04:00.916Z,4.90
2019-04-23T09:19:11.195Z,4.60
2019-04-23T09:34:26.226Z,4.20
2019-04-23T09:49:20.658Z,4.90
2019-04-23T10:04:08.652Z,4.70
2019-04-23T10:19:00.988Z,3.90
2019-04-23T10:34:02.079Z,4.70
2019-04-23T11:04:53.411Z,4.70
2019-04-23T11:19:53.852Z,4.70
2019-04-23T11:35:03.262Z,4.60
2019-04-23T11:50:13.940Z,4.90
2019-04-23T12:05:15.031Z,5.40
2019-04-23T12:20:13.138Z,5.60
2019-04-23T13:05:28.739Z,6.10
2019-04-23T13:20:28.027Z,5.50
2019-04-23T13:50:53.431Z,6.00
2019-04-23T14:05:45.680Z,6.20
2019-04-23T14:20:53.599Z,5.70
2019-04-23T14:35:56.328Z,6.20
2019-04-23T14:51:07.052Z,6.00
2019-04-23T15:51:30.088Z,8.10
2019-04-23T16:05:59.992Z,7.80
2019-04-23T16:21:35.856Z,9.50
2019-04-23T16:36:32.899Z,8.90
2019-04-23T16:51:31.918Z,9.70
2019-04-23T17:06:44.340Z,9.90
2019-04-23T17:21:56.888Z,11.40
2019-04-23T17:52:03.212Z,10.20
2019-04-23T18:07:12.120Z,10.70
2019-04-23T18:22:19.109Z,10.80
2019-04-23T18:37:22.604Z,10.40
2019-04-23T19:07:45.495Z,11.90
2019-04-23T19:22:38.028Z,11.10
2019-04-23T19:37:49.622Z,10.80
2019-04-23T19:53:07.375Z,12.30
2019-04-23T20:07:55.417Z,10.80
2019-04-23T20:22:52.232Z,9.20
2019-04-23T20:53:00.045Z,5.30
2019-04-23T21:08:14.149Z,4.70
2019-04-23T21:23:37.709Z,5.30
2019-04-23T21:38:31.742Z,5.70
2019-04-23T21:53:25.957Z,4.70
2019-04-23T22:08:36.892Z,4.40
2019-04-23T22:23:50.624Z,4.70
2019-04-23T22:38:41.661Z,3.80
2019-04-23T22:53:50.793Z,3.80
2019-04-23T23:09:01.086Z,3.80
2019-04-23T23:24:02.927Z,3.30
2019-04-23T23:39:05.550Z,3.60
2019-04-23T23:54:08.760Z,3.30
